Time;durP1;ratioP1;P1;durP2;ratioP2;P2;SDS_P1;SDS_P2;PMS_P1;PMS_P2;Temp;Humidity;BMP_temperature;BMP_pressure;BME280_temperature;BME280_humidity;BME280_pressure;Samples;Min_cycle;Max_cycle;Signal;HPM_P1;HPM_P2
2024/01/27 00:00:09;;;;;;;0.80;0.05;;;7.10;99.90;;;;;;4974460;28;20321;-70
2024/01/27 00:02:35;;;;;;;1.38;0.10;;;7.20;99.90;;;;;;4974446;28;20038;-67
2024/01/27 00:05:02;;;;;;;0.65;0.00;;;7.20;99.90;;;;;;4975561;28;20035;-67
2024/01/27 00:07:28;;;;;;;1.08;0.00;;;7.20;99.90;;;;;;4960399;28;20057;-67
2024/01/27 00:09:54;;;;;;;0.10;0.00;;;7.20;99.90;;;;;;4976612;28;20374;-68
2024/01/27 00:12:20;;;;;;;0.80;0.10;;;7.20;99.90;;;;;;4958614;28;20039;-67
2024/01/27 00:14:46;;;;;;;1.08;0.10;;;7.10;99.90;;;;;;4975252;28;20034;-67
2024/01/27 00:17:12;;;;;;;0.50;0.10;;;7.10;99.90;;;;;;4975369;28;20034;-66
2024/01/27 00:19:37;;;;;;;1.27;0.10;;;7.20;99.90;;;;;;4973946;28;20030;-67
2024/01/27 00:22:03;;;;;;;0.30;0.10;;;7.20;99.90;;;;;;4975079;28;20038;-67
2024/01/27 00:24:28;;;;;;;0.15;0.00;;;7.20;99.90;;;;;;4975180;28;20039;-67
2024/01/27 00:26:54;;;;;;;0.00;0.00;;;7.20;99.90;;;;;;4957978;28;20125;-67
2024/01/27 00:29:20;;;;;;;1.10;0.17;;;7.20;99.90;;;;;;4973608;28;20391;-67
2024/01/27 00:31:46;;;;;;;1.38;0.10;;;7.30;99.90;;;;;;4975174;28;20037;-67
2024/01/27 00:34:12;;;;;;;0.90;0.10;;;7.20;99.90;;;;;;4975186;28;20030;-67
2024/01/27 00:36:37;;;;;;;0.73;0.00;;;7.30;99.90;;;;;;4974738;28;20026;-67
2024/01/27 00:39:04;;;;;;;0.98;0.20;;;7.20;99.90;;;;;;4975251;28;20022;-67
2024/01/27 00:41:30;;;;;;;1.15;0.00;;;7.20;99.90;;;;;;4974897;28;20043;-67
2024/01/27 00:43:55;;;;;;;1.67;0.10;;;7.20;99.90;;;;;;4957607;28;20475;-66
2024/01/27 00:46:21;;;;;;;1.35;0.15;;;7.20;99.90;;;;;;4974911;28;20023;-67
2024/01/27 00:48:47;;;;;;;0.10;0.10;;;7.20;99.90;;;;;;4974959;28;20034;-67
2024/01/27 00:51:13;;;;;;;2.45;0.20;;;7.10;99.90;;;;;;4957616;28;20383;-67
2024/01/27 00:53:39;;;;;;;0.70;0.20;;;7.10;99.90;;;;;;4975094;28;20049;-66
2024/01/27 00:56:05;;;;;;;0.73;0.10;;;7.10;99.90;;;;;;4974793;28;20031;-67
2024/01/27 00:58:31;;;;;;;0.15;0.10;;;7.10;99.90;;;;;;4973491;28;20122;-66
2024/01/27 01:00:58;;;;;;;4.80;0.50;;;7.10;99.90;;;;;;4973502;28;20027;-67
2024/01/27 01:03:24;;;;;;;0.63;0.10;;;7.10;99.90;;;;;;4974738;28;20031;-67
2024/01/27 01:05:49;;;;;;;0.30;0.10;;;7.00;99.90;;;;;;4974768;28;20031;-67
2024/01/27 01:08:15;;;;;;;1.13;0.25;;;7.00;99.90;;;;;;4975012;28;20131;-67
2024/01/27 01:10:41;;;;;;;0.30;0.22;;;7.00;99.90;;;;;;4974687;28;20023;-67
2024/01/27 01:13:06;;;;;;;1.67;0.30;;;6.90;99.90;;;;;;4975745;28;20034;-67
2024/01/27 01:15:32;;;;;;;2.33;0.20;;;6.90;99.90;;;;;;4978158;28;20026;-67
2024/01/27 01:17:58;;;;;;;2.00;0.55;;;6.90;99.90;;;;;;4978115;28;20161;-66
2024/01/27 01:20:25;;;;;;;1.13;0.10;;;6.90;99.90;;;;;;4960921;28;20481;-66
2024/01/27 01:22:51;;;;;;;1.55;0.35;;;6.90;99.90;;;;;;4977916;28;20035;-67
2024/01/27 01:25:17;;;;;;;2.65;0.32;;;6.80;99.90;;;;;;4978211;28;20378;-67
2024/01/27 01:27:43;;;;;;;0.93;0.55;;;6.80;99.90;;;;;;4978380;28;20051;-66
2024/01/27 01:30:09;;;;;;;3.60;0.25;;;6.80;99.90;;;;;;4961374;28;20089;-67
2024/01/27 01:32:35;;;;;;;1.52;0.30;;;6.80;99.90;;;;;;4978032;28;20057;-67
2024/01/27 01:35:01;;;;;;;0.95;0.30;;;6.80;99.90;;;;;;4978044;28;20466;-67
2024/01/27 01:37:26;;;;;;;1.77;0.55;;;6.80;99.90;;;;;;4978526;28;20039;-67
2024/01/27 01:39:52;;;;;;;2.00;0.28;;;6.70;99.90;;;;;;4978646;28;20031;-70
2024/01/27 01:42:18;;;;;;;3.75;0.40;;;6.70;99.90;;;;;;4978217;28;20073;-70
2024/01/27 01:44:43;;;;;;;3.20;0.20;;;6.70;99.90;;;;;;4978143;28;20030;-67
2024/01/27 01:47:09;;;;;;;1.75;0.40;;;6.70;99.90;;;;;;4978159;28;20415;-67
2024/01/27 01:49:37;;;;;;;1.95;0.47;;;6.70;99.90;;;;;;4960402;28;20057;-67
2024/01/27 01:52:03;;;;;;;2.53;0.20;;;6.70;99.90;;;;;;4960076;28;20035;-66
2024/01/27 01:54:30;;;;;;;2.45;0.20;;;6.60;99.90;;;;;;4977914;28;20030;-67
2024/01/27 01:56:57;;;;;;;2.40;0.75;;;6.60;99.90;;;;;;4977652;28;20026;-66
2024/01/27 01:59:23;;;;;;;0.90;0.30;;;6.60;99.90;;;;;;4977609;28;20027;-66
2024/01/27 02:01:49;;;;;;;2.97;0.43;;;6.60;99.90;;;;;;4976183;28;20039;-67
2024/01/27 02:04:14;;;;;;;1.13;0.28;;;6.60;99.90;;;;;;4977468;28;20062;-66
2024/01/27 02:06:40;;;;;;;4.20;0.75;;;6.50;99.90;;;;;;4976216;28;20422;-67
2024/01/27 02:09:06;;;;;;;2.00;0.50;;;6.50;99.90;;;;;;4977415;28;20446;-67
2024/01/27 02:11:32;;;;;;;1.88;0.40;;;6.50;99.90;;;;;;4976441;28;20459;-67
2024/01/27 02:13:57;;;;;;;1.95;0.57;;;6.40;99.90;;;;;;4977553;28;20027;-66
2024/01/27 02:16:23;;;;;;;3.40;0.60;;;6.40;99.90;;;;;;4976278;28;20407;-67
2024/01/27 02:18:49;;;;;;;3.70;0.43;;;6.40;99.90;;;;;;4959864;28;20061;-67
2024/01/27 02:21:14;;;;;;;2.95;0.57;;;6.40;99.90;;;;;;4975962;28;20065;-67
2024/01/27 02:23:40;;;;;;;3.83;0.77;;;6.40;99.90;;;;;;4959725;28;20478;-67
2024/01/27 02:26:05;;;;;;;3.15;0.60;;;6.40;99.90;;;;;;4976002;28;20074;-67
2024/01/27 02:28:35;;;;;;;3.22;0.40;;;6.40;99.90;;;;;;4977175;28;20111;-67
2024/01/27 02:31:01;;;;;;;1.67;0.30;;;6.40;99.90;;;;;;4975883;28;20030;-67
2024/01/27 02:33:26;;;;;;;3.33;0.63;;;6.40;99.90;;;;;;4959689;28;20022;-67
2024/01/27 02:35:52;;;;;;;1.98;0.30;;;6.40;99.90;;;;;;4959631;28;20031;-66
2024/01/27 02:38:17;;;;;;;1.23;0.40;;;6.40;99.90;;;;;;4976894;28;20038;-67
2024/01/27 02:40:43;;;;;;;1.20;0.30;;;6.40;99.90;;;;;;4975730;28;20069;-67
2024/01/27 02:43:09;;;;;;;1.35;0.60;;;6.40;99.90;;;;;;4976741;28;20038;-67
2024/01/27 02:45:35;;;;;;;3.53;0.38;;;6.40;99.90;;;;;;4976701;28;20026;-67
2024/01/27 02:48:00;;;;;;;1.88;0.50;;;6.40;99.90;;;;;;4975452;28;20026;-67
2024/01/27 02:50:26;;;;;;;4.00;0.40;;;6.30;99.90;;;;;;4976602;28;20023;-67
2024/01/27 02:52:52;;;;;;;0.80;0.50;;;6.30;99.90;;;;;;4975275;28;20035;-66
2024/01/27 02:55:18;;;;;;;5.30;0.90;;;6.30;99.90;;;;;;4959759;28;20023;-67
2024/01/27 02:57:43;;;;;;;2.72;0.40;;;6.20;99.90;;;;;;4976501;28;20106;-67
2024/01/27 03:00:10;;;;;;;1.80;0.82;;;6.20;99.90;;;;;;4976144;28;20038;-67
2024/01/27 03:02:35;;;;;;;1.95;0.60;;;6.10;99.90;;;;;;4961786;28;20093;-67
2024/01/27 03:05:01;;;;;;;2.50;0.63;;;6.20;99.90;;;;;;4978260;28;20403;-68
2024/01/27 03:07:26;;;;;;;4.82;1.35;;;6.10;99.90;;;;;;4978197;28;20061;-67
2024/01/27 03:09:52;;;;;;;3.22;0.63;;;6.10;99.90;;;;;;4959770;28;20031;-67
2024/01/27 03:12:18;;;;;;;3.08;0.63;;;6.00;99.90;;;;;;4976254;28;20027;-67
2024/01/27 03:14:44;;;;;;;5.68;0.80;;;6.00;99.90;;;;;;4976274;28;20023;-67
2024/01/27 03:17:10;;;;;;;2.72;0.82;;;5.90;99.90;;;;;;4976136;28;20022;-67
2024/01/27 03:19:35;;;;;;;1.95;0.68;;;5.90;99.90;;;;;;4976342;28;20029;-67
2024/01/27 03:22:01;;;;;;;2.70;0.50;;;5.80;99.90;;;;;;4976110;28;20121;-67
2024/01/27 03:24:27;;;;;;;5.82;0.90;;;5.80;99.90;;;;;;4976159;28;20026;-67
2024/01/27 03:26:53;;;;;;;3.33;1.23;;;5.70;99.90;;;;;;4976129;28;20051;-67
2024/01/27 03:29:18;;;;;;;1.75;0.80;;;5.70;99.90;;;;;;4975643;28;20027;-67
2024/01/27 03:31:44;;;;;;;1.20;0.77;;;5.70;99.90;;;;;;4958559;28;20070;-67
2024/01/27 03:34:09;;;;;;;2.78;1.25;;;5.70;99.90;;;;;;4959018;28;20026;-67
2024/01/27 03:36:35;;;;;;;3.88;0.98;;;5.60;99.90;;;;;;4975480;28;20030;-66
2024/01/27 03:39:01;;;;;;;4.80;1.15;;;5.60;99.90;;;;;;4976196;28;20478;-66
2024/01/27 03:41:26;;;;;;;2.47;0.90;;;5.60;99.90;;;;;;4975831;28;20093;-67
2024/01/27 03:43:52;;;;;;;3.25;1.00;;;5.60;99.90;;;;;;4975674;28;20069;-67
2024/01/27 03:46:18;;;;;;;2.20;0.90;;;5.60;99.90;;;;;;4975502;28;20062;-67
2024/01/27 03:48:43;;;;;;;4.68;2.03;;;5.60;99.90;;;;;;4975399;28;20027;-67
2024/01/27 03:51:09;;;;;;;2.92;0.93;;;5.60;99.90;;;;;;4975714;28;20027;-66
2024/01/27 03:53:36;;;;;;;5.35;1.40;;;5.60;99.90;;;;;;4958268;28;20035;-67
2024/01/27 03:56:04;;;;;;;4.65;0.73;;;5.60;99.90;;;;;;4975243;28;20374;-67
2024/01/27 03:58:30;;;;;;;3.80;1.08;;;5.60;99.90;;;;;;4958082;28;20026;-67
2024/01/27 04:00:56;;;;;;;2.22;1.00;;;5.60;99.90;;;;;;4975136;28;20030;-67
2024/01/27 04:03:22;;;;;;;2.70;0.57;;;5.60;99.90;;;;;;4974991;28;20035;-67
2024/01/27 04:05:48;;;;;;;5.38;1.42;;;5.60;99.90;;;;;;4975303;28;20029;-67
2024/01/27 04:08:13;;;;;;;3.53;1.10;;;5.50;99.90;;;;;;4958729;28;20030;-67
2024/01/27 04:10:39;;;;;;;5.03;1.15;;;5.50;99.90;;;;;;4975540;28;20109;-67
2024/01/27 04:13:05;;;;;;;2.15;0.85;;;5.50;99.90;;;;;;4975266;28;20442;-67
2024/01/27 04:15:38;;;;;;;4.63;1.10;;;5.50;99.90;;;;;;4957842;28;20027;-67
2024/01/27 04:18:04;;;;;;;2.50;0.95;;;5.50;99.90;;;;;;4974150;28;20030;-67
2024/01/27 04:20:30;;;;;;;3.25;1.00;;;5.50;99.90;;;;;;4975561;28;20402;-67
2024/01/27 04:22:55;;;;;;;4.30;0.90;;;5.40;99.90;;;;;;4975293;28;20045;-67
2024/01/27 04:25:21;;;;;;;2.10;0.90;;;5.40;99.90;;;;;;4975091;28;20026;-67
2024/01/27 04:27:46;;;;;;;5.93;1.30;;;5.30;99.90;;;;;;4957179;28;20148;-67
2024/01/27 04:30:12;;;;;;;6.03;1.42;;;5.30;99.90;;;;;;4975343;28;20530;-67
2024/01/27 04:32:38;;;;;;;2.85;1.20;;;5.30;99.90;;;;;;4975012;28;20117;-67
2024/01/27 04:35:08;;;;;;;8.15;1.52;;;5.20;99.90;;;;;;4957838;28;20113;-67
2024/01/27 04:37:33;;;;;;;2.78;1.20;;;5.20;99.90;;;;;;4975029;28;20030;-66
2024/01/27 04:39:59;;;;;;;4.72;1.42;;;5.20;99.90;;;;;;4975258;28;20367;-67
2024/01/27 04:42:25;;;;;;;3.70;1.20;;;5.20;99.90;;;;;;4975448;28;20038;-67
2024/01/27 04:44:50;;;;;;;6.28;1.77;;;5.20;99.90;;;;;;4974938;28;20553;-67
2024/01/27 04:47:16;;;;;;;2.75;1.25;;;5.10;99.90;;;;;;4973843;28;20031;-67
2024/01/27 04:49:42;;;;;;;5.20;1.00;;;5.10;99.90;;;;;;4980429;28;20030;-67
2024/01/27 04:52:08;;;;;;;2.83;1.17;;;5.10;99.90;;;;;;4980030;28;20082;-67
2024/01/27 04:54:33;;;;;;;3.72;1.70;;;5.10;99.90;;;;;;4979575;28;20026;-68
2024/01/27 04:56:59;;;;;;;4.32;1.02;;;5.10;99.90;;;;;;4978298;28;20033;-71
2024/01/27 04:59:24;;;;;;;1.38;0.80;;;5.20;99.90;;;;;;4962647;28;20078;-67
2024/01/27 05:01:51;;;;;;;7.38;1.48;;;5.20;99.90;;;;;;4962395;28;20478;-67
2024/01/27 05:04:16;;;;;;;5.28;1.00;;;5.20;99.90;;;;;;4961893;28;20023;-67
2024/01/27 05:06:45;;;;;;;6.72;1.50;;;5.20;99.90;;;;;;4960999;28;20522;-67
2024/01/27 05:09:11;;;;;;;3.95;0.98;;;5.20;99.90;;;;;;4961486;28;20374;-67
2024/01/27 05:11:37;;;;;;;3.72;1.13;;;5.20;99.90;;;;;;4978455;28;20031;-67
2024/01/27 05:14:03;;;;;;;2.25;1.15;;;5.20;99.90;;;;;;4978420;28;20352;-67
2024/01/27 05:16:29;;;;;;;2.50;0.88;;;5.20;99.90;;;;;;4961049;28;20038;-67
2024/01/27 05:18:55;;;;;;;2.08;1.00;;;5.10;99.90;;;;;;4978335;28;20031;-67
2024/01/27 05:21:20;;;;;;;4.65;1.08;;;5.10;99.90;;;;;;4976946;28;20378;-67
2024/01/27 05:23:46;;;;;;;3.15;1.10;;;5.20;99.90;;;;;;4978556;28;20158;-66
2024/01/27 05:26:11;;;;;;;2.33;1.13;;;5.10;99.90;;;;;;4973345;28;20488;-67
2024/01/27 05:28:39;;;;;;;5.45;1.75;;;5.20;99.90;;;;;;4959229;28;20031;-67
2024/01/27 05:31:08;;;;;;;3.08;0.70;;;5.10;99.90;;;;;;4957532;29;20027;-67
2024/01/27 05:33:34;;;;;;;1.83;0.80;;;5.10;99.90;;;;;;4958971;28;20031;-67
2024/01/27 05:35:59;;;;;;;2.53;1.10;;;5.10;99.90;;;;;;4973815;28;20118;-67
2024/01/27 05:38:26;;;;;;;3.08;1.00;;;5.10;99.90;;;;;;4958737;29;20178;-68
2024/01/27 05:40:51;;;;;;;7.00;0.88;;;5.10;99.90;;;;;;4957427;29;20122;-67
2024/01/27 05:43:17;;;;;;;3.58;1.15;;;5.10;99.90;;;;;;4958518;29;20114;-67
2024/01/27 05:45:45;;;;;;;1.15;0.82;;;5.10;99.90;;;;;;4957468;29;20030;-67
2024/01/27 05:48:11;;;;;;;2.65;0.93;;;5.10;99.90;;;;;;4958605;29;20037;-67
2024/01/27 05:50:36;;;;;;;5.13;1.00;;;5.00;99.90;;;;;;4958513;29;20061;-67
2024/01/27 05:53:02;;;;;;;6.35;1.00;;;5.00;99.90;;;;;;4958419;29;20059;-67
2024/01/27 05:55:28;;;;;;;4.57;1.45;;;4.90;99.90;;;;;;4958363;29;20031;-67
2024/01/27 05:57:56;;;;;;;3.58;1.15;;;4.90;99.90;;;;;;4958352;29;20030;-67
2024/01/27 06:00:22;;;;;;;7.20;1.38;;;4.90;99.90;;;;;;4958380;28;20019;-67
2024/01/27 06:02:48;;;;;;;4.57;1.30;;;4.90;99.90;;;;;;4957922;29;20035;-67
2024/01/27 06:05:13;;;;;;;4.70;1.85;;;4.90;99.90;;;;;;4958499;29;20077;-67
2024/01/27 06:07:40;;;;;;;5.15;1.40;;;4.90;99.90;;;;;;4958007;29;20490;-67
2024/01/27 06:10:08;;;;;;;4.32;1.23;;;4.90;99.90;;;;;;4957854;29;20367;-67
2024/01/27 06:12:34;;;;;;;5.00;1.70;;;4.90;99.90;;;;;;4957818;29;20484;-67
2024/01/27 06:15:00;;;;;;;2.30;1.75;;;4.90;99.90;;;;;;4958034;29;20033;-67
2024/01/27 06:17:26;;;;;;;4.18;1.45;;;4.90;99.90;;;;;;4957753;29;20039;-67
2024/01/27 06:19:51;;;;;;;1.85;1.10;;;4.90;99.90;;;;;;4957741;29;20032;-67
2024/01/27 06:22:17;;;;;;;4.65;1.27;;;4.90;99.90;;;;;;4958102;29;20356;-68
2024/01/27 06:24:44;;;;;;;6.32;2.60;;;4.90;99.90;;;;;;4959521;29;20031;-68
2024/01/27 06:27:10;;;;;;;4.72;1.23;;;4.90;99.90;;;;;;4972251;28;20050;-68
2024/01/27 06:29:35;;;;;;;2.80;1.13;;;5.00;99.90;;;;;;4960135;28;20118;-67
2024/01/27 06:32:01;;;;;;;3.15;1.30;;;5.00;99.90;;;;;;4977030;28;20050;-67
2024/01/27 06:34:27;;;;;;;4.72;1.75;;;5.10;99.90;;;;;;4959803;28;20070;-67
2024/01/27 06:36:52;;;;;;;4.88;1.13;;;5.20;99.90;;;;;;4976975;28;20027;-67
2024/01/27 06:39:18;;;;;;;5.38;1.33;;;5.20;99.90;;;;;;4976866;28;20031;-67
2024/01/27 06:41:43;;;;;;;8.13;1.65;;;5.10;99.90;;;;;;4976754;28;20490;-67
2024/01/27 06:44:09;;;;;;;5.72;1.77;;;5.10;99.90;;;;;;4976956;28;20027;-67
2024/01/27 06:46:35;;;;;;;7.00;1.38;;;5.00;99.90;;;;;;4977451;28;20031;-67
2024/01/27 06:49:01;;;;;;;2.83;1.20;;;5.00;99.90;;;;;;4959683;28;20066;-67
2024/01/27 06:51:27;;;;;;;5.47;1.65;;;5.00;99.90;;;;;;4959289;28;20125;-67
2024/01/27 06:53:53;;;;;;;7.88;1.50;;;5.00;99.90;;;;;;4975397;28;20074;-67
2024/01/27 06:56:18;;;;;;;3.88;1.10;;;4.90;99.90;;;;;;4975336;28;20027;-67
2024/01/27 06:58:44;;;;;;;2.70;1.33;;;4.80;99.90;;;;;;4976786;28;20038;-67
2024/01/27 07:01:09;;;;;;;6.20;1.58;;;4.80;99.90;;;;;;4976538;28;20031;-67
2024/01/27 07:03:35;;;;;;;8.65;2.35;;;4.70;99.90;;;;;;4976603;28;20042;-67
2024/01/27 07:06:01;;;;;;;5.30;2.20;;;4.70;99.90;;;;;;4959029;28;20035;-67
2024/01/27 07:08:27;;;;;;;6.82;1.23;;;4.70;99.90;;;;;;4959212;28;20062;-67
2024/01/27 07:10:52;;;;;;;4.32;1.42;;;4.70;99.90;;;;;;4974709;28;20471;-67
2024/01/27 07:13:18;;;;;;;3.42;1.25;;;4.70;99.90;;;;;;4958998;28;20482;-67
2024/01/27 07:15:44;;;;;;;2.85;1.25;;;4.70;99.90;;;;;;4976241;28;20415;-67
2024/01/27 07:18:10;;;;;;;1.63;1.10;;;4.80;99.90;;;;;;4975994;28;20078;-67
2024/01/27 07:20:37;;;;;;;3.75;1.10;;;4.80;99.90;;;;;;4958770;28;20356;-68
2024/01/27 07:23:02;;;;;;;3.75;2.05;;;5.10;99.90;;;;;;4959490;28;20039;-67
2024/01/27 07:25:29;;;;;;;3.38;0.95;;;5.60;99.90;;;;;;4975786;28;20101;-64
2024/01/27 07:27:55;;;;;;;4.63;1.10;;;5.70;99.90;;;;;;4975297;28;20086;-64
2024/01/27 07:30:20;;;;;;;7.88;1.45;;;5.40;99.90;;;;;;4958705;28;20058;-64
2024/01/27 07:32:46;;;;;;;5.63;0.95;;;5.30;99.90;;;;;;4975768;28;20053;-63
2024/01/27 07:35:12;;;;;;;8.00;1.45;;;5.20;99.90;;;;;;4975867;28;20038;-63
2024/01/27 07:37:38;;;;;;;6.53;1.40;;;5.20;99.90;;;;;;4975913;28;20053;-63
2024/01/27 07:40:05;;;;;;;4.22;1.50;;;5.20;99.90;;;;;;4975993;28;20062;-63
2024/01/27 07:42:31;;;;;;;6.07;1.75;;;5.20;99.90;;;;;;4975402;28;20042;-63
2024/01/27 07:44:57;;;;;;;7.25;1.60;;;5.30;99.90;;;;;;4958484;28;20027;-63
2024/01/27 07:47:23;;;;;;;6.55;1.58;;;5.30;99.90;;;;;;4975659;28;20030;-64
2024/01/27 07:49:48;;;;;;;8.27;2.83;;;5.20;99.90;;;;;;4958771;28;20027;-64
2024/01/27 07:52:14;;;;;;;4.72;1.45;;;5.20;99.90;;;;;;4975594;28;20478;-63
2024/01/27 07:54:40;;;;;;;3.70;1.83;;;5.20;99.90;;;;;;4958149;28;20387;-64
2024/01/27 07:57:06;;;;;;;4.30;1.38;;;5.40;99.90;;;;;;4975530;28;20042;-64
2024/01/27 07:59:32;;;;;;;7.60;1.95;;;5.50;99.90;;;;;;4975533;28;20023;-68
2024/01/27 08:01:59;;;;;;;6.32;1.63;;;5.60;99.90;;;;;;4975395;28;20117;-63
2024/01/27 08:04:25;;;;;;;3.78;1.33;;;5.70;99.90;;;;;;4975305;28;20078;-64
2024/01/27 08:06:51;;;;;;;7.47;1.52;;;5.80;99.90;;;;;;4958068;28;20034;-64
2024/01/27 08:09:17;;;;;;;5.18;1.65;;;5.90;99.90;;;;;;4975358;28;20489;-64
2024/01/27 08:11:43;;;;;;;6.22;2.17;;;6.00;99.90;;;;;;4974025;28;20034;-64
2024/01/27 08:14:09;;;;;;;4.70;1.50;;;6.10;99.90;;;;;;4975326;28;20077;-64
2024/01/27 08:16:35;;;;;;;11.60;2.63;;;6.20;99.90;;;;;;4975366;28;20105;-64
2024/01/27 08:19:01;;;;;;;4.95;1.50;;;6.40;99.90;;;;;;4975350;28;20050;-64
2024/01/27 08:21:27;;;;;;;6.32;2.03;;;6.40;99.90;;;;;;4975382;28;20038;-64
2024/01/27 08:23:54;;;;;;;5.00;1.70;;;6.60;99.90;;;;;;4973315;28;20030;-64
2024/01/27 08:26:20;;;;;;;3.83;1.40;;;6.80;99.90;;;;;;4975077;28;20116;-64
2024/01/27 08:28:47;;;;;;;9.38;2.95;;;6.90;99.90;;;;;;4975058;28;20447;-64
2024/01/27 08:31:12;;;;;;;3.55;1.98;;;7.20;99.90;;;;;;4973706;28;20027;-64
2024/01/27 08:33:38;;;;;;;7.90;2.05;;;7.20;99.90;;;;;;4975092;28;20057;-64
2024/01/27 08:36:04;;;;;;;4.75;1.40;;;7.20;99.90;;;;;;4974924;28;20033;-64
2024/01/27 08:38:30;;;;;;;6.82;1.63;;;7.20;99.90;;;;;;4975308;28;20035;-64
2024/01/27 08:40:55;;;;;;;4.13;1.40;;;7.40;99.90;;;;;;4957820;28;20031;-64
2024/01/27 08:43:21;;;;;;;4.55;1.17;;;7.50;99.90;;;;;;4957626;28;20057;-64
2024/01/27 08:45:46;;;;;;;4.82;1.63;;;7.80;99.90;;;;;;4974933;28;20113;-65
2024/01/27 08:48:12;;;;;;;2.50;1.40;;;7.90;99.40;;;;;;4974979;28;20485;-64
2024/01/27 08:50:38;;;;;;;7.47;1.42;;;8.40;98.70;;;;;;4974970;28;20387;-64
2024/01/27 08:53:04;;;;;;;6.07;1.30;;;8.60;97.70;;;;;;4974892;28;20355;-64
2024/01/27 08:55:30;;;;;;;6.55;1.90;;;8.70;97.50;;;;;;4973545;28;20034;-64
2024/01/27 08:57:59;;;;;;;5.53;1.85;;;8.60;97.50;;;;;;4957550;28;20462;-64
2024/01/27 09:00:24;;;;;;;5.28;1.90;;;8.90;97.40;;;;;;4974843;28;20041;-64
2024/01/27 09:02:52;;;;;;;6.68;2.28;;;8.50;97.00;;;;;;4974727;28;20035;-64
2024/01/27 09:05:18;;;;;;;3.83;1.70;;;8.60;98.00;;;;;;4975040;28;20029;-64
2024/01/27 09:07:43;;;;;;;7.15;2.00;;;8.70;97.30;;;;;;4973547;28;20382;-64
2024/01/27 09:10:12;;;;;;;6.20;2.28;;;8.50;97.40;;;;;;4958132;28;20023;-64
2024/01/27 09:12:38;;;;;;;6.15;2.28;;;8.60;97.60;;;;;;4973954;28;20082;-64
2024/01/27 09:15:04;;;;;;;5.82;2.08;;;8.40;97.70;;;;;;4974669;28;20039;-64
2024/01/27 09:17:29;;;;;;;6.93;2.15;;;8.40;98.10;;;;;;4974689;28;20038;-64
2024/01/27 09:19:55;;;;;;;5.22;2.17;;;8.60;97.60;;;;;;4957324;28;20393;-64
2024/01/27 09:22:21;;;;;;;5.75;1.92;;;8.70;97.20;;;;;;4957196;28;20485;-64
2024/01/27 09:24:46;;;;;;;8.77;2.58;;;8.60;97.20;;;;;;4974734;28;20030;-64
2024/01/27 09:27:12;;;;;;;9.25;3.17;;;8.80;96.90;;;;;;4956839;28;20057;-64
2024/01/27 09:29:38;;;;;;;9.15;2.10;;;9.10;96.40;;;;;;4974534;28;20027;-64
2024/01/27 09:32:05;;;;;;;8.93;2.97;;;9.40;95.50;;;;;;4974765;28;20058;-64
2024/01/27 09:34:30;;;;;;;8.63;1.98;;;9.20;95.00;;;;;;4976233;28;20027;-64
2024/01/27 09:36:56;;;;;;;6.85;1.85;;;9.00;95.40;;;;;;4978029;28;20026;-64
2024/01/27 09:39:21;;;;;;;9.95;2.60;;;9.20;95.20;;;;;;4960673;28;20379;-65
2024/01/27 09:41:48;;;;;;;6.60;2.47;;;9.90;94.20;;;;;;4960494;28;20046;-64
2024/01/27 09:44:18;;;;;;;8.93;2.67;;;10.30;92.80;;;;;;4960980;28;20034;-64
2024/01/27 09:46:45;;;;;;;6.07;1.90;;;10.30;91.60;;;;;;4960618;28;20038;-64
2024/01/27 09:49:13;;;;;;;8.02;2.25;;;10.00;91.70;;;;;;4960422;28;20458;-64
2024/01/27 09:51:38;;;;;;;5.82;1.40;;;9.70;92.40;;;;;;4977765;28;20034;-64
2024/01/27 09:54:04;;;;;;;5.88;1.33;;;9.70;91.90;;;;;;4977482;28;20030;-64
2024/01/27 09:56:31;;;;;;;2.67;1.52;;;9.60;92.10;;;;;;4960320;28;20478;-64
2024/01/27 09:58:57;;;;;;;6.47;2.17;;;9.90;91.90;;;;;;4977668;28;20148;-64
2024/01/27 10:01:27;;;;;;;8.35;3.33;;;10.10;91.10;;;;;;4977289;28;20115;-64
2024/01/27 10:03:54;;;;;;;5.70;1.60;;;10.10;91.20;;;;;;4977973;28;20026;-64
2024/01/27 10:06:21;;;;;;;4.75;1.58;;;10.40;90.50;;;;;;4977483;28;20033;-64
2024/01/27 10:08:54;;;;;;;4.28;1.90;;;10.40;89.40;;;;;;4960178;28;20058;-65
2024/01/27 10:11:21;;;;;;;5.65;1.73;;;9.80;90.50;;;;;;4977366;28;20435;-64
2024/01/27 10:14:00;;;;;;;6.28;2.22;;;9.50;90.80;;;;;;4960342;28;20386;-64
2024/01/27 10:16:27;;;;;;;7.78;2.25;;;9.60;91.30;;;;;;4977407;28;20034;-64
2024/01/27 10:19:00;;;;;;;7.30;1.85;;;9.30;91.50;;;;;;4976001;28;20382;-64
2024/01/27 10:21:27;;;;;;;7.50;2.58;;;9.20;92.00;;;;;;4959803;28;20034;-65
2024/01/27 10:23:52;;;;;;;9.50;1.58;;;9.50;92.00;;;;;;4977442;28;20375;-65
2024/01/27 10:26:18;;;;;;;6.20;1.88;;;9.70;91.00;;;;;;4959674;28;20054;-65
2024/01/27 10:28:55;;;;;;;8.48;1.63;;;9.60;91.00;;;;;;4975610;28;20057;-64
2024/01/27 10:31:27;;;;;;;3.90;1.60;;;9.50;91.30;;;;;;4960197;28;20085;-64
2024/01/27 10:33:54;;;;;;;7.78;1.75;;;9.30;91.30;;;;;;4959839;28;20095;-64
2024/01/27 10:36:20;;;;;;;6.43;2.05;;;8.90;91.40;;;;;;4976008;28;20029;-64
2024/01/27 10:38:46;;;;;;;6.85;1.80;;;9.10;91.40;;;;;;4976613;28;20084;-64
2024/01/27 10:41:17;;;;;;;5.22;1.33;;;8.80;91.70;;;;;;4976890;28;20035;-64
2024/01/27 10:43:43;;;;;;;7.53;1.98;;;8.50;91.90;;;;;;4959638;28;20133;-64
2024/01/27 10:46:10;;;;;;;6.40;2.03;;;8.10;92.60;;;;;;4958705;28;20027;-64
2024/01/27 10:48:37;;;;;;;6.57;1.40;;;8.10;92.90;;;;;;4976777;28;20038;-64
2024/01/27 10:51:14;;;;;;;3.00;1.38;;;8.30;92.40;;;;;;4976698;28;20086;-64
2024/01/27 10:53:41;;;;;;;6.18;1.70;;;8.30;92.20;;;;;;4959355;28;20475;-64
2024/01/27 10:56:09;;;;;;;6.00;1.67;;;8.30;92.40;;;;;;4976551;28;20360;-65
2024/01/27 10:58:41;;;;;;;8.82;1.98;;;8.60;91.70;;;;;;4976577;28;20027;-64
2024/01/27 11:01:14;;;;;;;7.43;1.63;;;9.00;91.20;;;;;;4976763;28;20027;-64
2024/01/27 11:03:40;;;;;;;9.38;1.95;;;9.50;90.20;;;;;;4958989;28;20066;-64
2024/01/27 11:06:07;;;;;;;5.30;1.40;;;9.70;90.00;;;;;;4976367;28;20035;-64
2024/01/27 11:08:34;;;;;;;6.90;1.30;;;9.70;89.90;;;;;;4959078;28;20038;-64
2024/01/27 11:11:01;;;;;;;4.43;1.58;;;10.00;89.30;;;;;;4976280;28;20033;-64
2024/01/27 11:13:30;;;;;;;4.88;1.20;;;10.50;87.20;;;;;;4976492;28;20114;-64
2024/01/27 11:15:56;;;;;;;5.82;1.58;;;10.40;86.20;;;;;;4976240;28;20073;-64
2024/01/27 11:18:22;;;;;;;3.63;1.33;;;10.80;85.80;;;;;;4959081;28;20031;-64
2024/01/27 11:20:47;;;;;;;5.25;1.23;;;11.10;84.00;;;;;;4958794;28;20047;-64
2024/01/27 11:23:14;;;;;;;5.30;1.63;;;11.80;82.10;;;;;;4976048;28;20031;-64
2024/01/27 11:25:40;;;;;;;4.30;1.67;;;11.90;79.00;;;;;;4958946;28;20026;-64
2024/01/27 11:28:14;;;;;;;4.47;1.40;;;11.80;78.50;;;;;;4975960;28;20066;-64
2024/01/27 11:30:44;;;;;;;3.53;1.80;;;11.80;78.40;;;;;;4976100;28;20023;-64
2024/01/27 11:33:10;;;;;;;5.82;1.75;;;11.20;79.40;;;;;;4976104;28;20081;-64
2024/01/27 11:35:36;;;;;;;2.45;1.40;;;11.60;79.80;;;;;;4958485;28;20475;-65
2024/01/27 11:38:02;;;;;;;5.50;2.47;;;11.40;79.10;;;;;;4958662;28;20375;-64
2024/01/27 11:40:28;;;;;;;5.95;1.65;;;11.70;78.30;;;;;;4975503;28;20027;-64
2024/01/27 11:42:58;;;;;;;5.22;1.75;;;10.60;79.30;;;;;;4975631;28;20479;-64
2024/01/27 11:45:24;;;;;;;6.20;1.52;;;10.70;81.30;;;;;;4975910;28;20035;-64
2024/01/27 11:47:50;;;;;;;7.15;1.80;;;11.10;80.30;;;;;;4975694;28;20023;-64
2024/01/27 11:50:19;;;;;;;4.65;1.40;;;11.60;78.50;;;;;;4975880;28;20063;-65
2024/01/27 11:52:45;;;;;;;2.65;1.13;;;12.20;77.80;;;;;;4975307;28;20027;-65
2024/01/27 11:55:11;;;;;;;5.85;2.08;;;12.50;76.00;;;;;;4958507;28;20030;-65
2024/01/27 11:57:36;;;;;;;3.60;1.38;;;12.30;76.00;;;;;;4975368;28;20102;-64
2024/01/27 12:00:03;;;;;;;7.05;1.33;;;11.30;77.80;;;;;;4975264;28;20117;-64
2024/01/27 12:02:28;;;;;;;2.60;1.17;;;10.80;79.60;;;;;;4975371;28;20125;-64
2024/01/27 12:04:54;;;;;;;5.00;1.58;;;10.60;81.80;;;;;;4975112;28;20055;-65
2024/01/27 12:07:20;;;;;;;3.28;1.23;;;11.30;79.30;;;;;;4958463;28;20034;-64
2024/01/27 12:09:48;;;;;;;10.05;2.50;;;11.40;78.80;;;;;;4975794;28;20031;-64
2024/01/27 12:12:14;;;;;;;3.42;1.23;;;11.00;78.30;;;;;;4957890;28;20509;-64
2024/01/27 12:14:47;;;;;;;4.95;1.23;;;10.60;78.90;;;;;;4975264;28;20023;-64
2024/01/27 12:17:13;;;;;;;3.42;1.50;;;10.50;80.70;;;;;;4975382;28;20031;-64
2024/01/27 12:19:45;;;;;;;5.30;2.33;;;10.80;80.00;;;;;;4975456;28;20027;-64
2024/01/27 12:22:21;;;;;;;5.80;1.98;;;11.10;78.00;;;;;;4975272;28;20039;-64
2024/01/27 12:24:47;;;;;;;5.03;1.45;;;11.20;78.00;;;;;;4975396;28;20023;-64
2024/01/27 12:27:13;;;;;;;3.95;1.13;;;11.20;77.40;;;;;;4975327;28;20077;-65
2024/01/27 12:29:41;;;;;;;4.10;1.60;;;11.20;77.60;;;;;;4975101;28;20023;-65
2024/01/27 12:32:07;;;;;;;4.67;1.47;;;11.30;77.40;;;;;;4975061;28;20118;-65
2024/01/27 12:34:33;;;;;;;5.07;1.35;;;11.60;76.30;;;;;;4974710;28;20026;-65
2024/01/27 12:36:58;;;;;;;3.72;1.40;;;11.60;75.30;;;;;;4975234;28;20034;-65
2024/01/27 12:39:26;;;;;;;5.78;1.42;;;11.00;76.10;;;;;;4974975;28;20031;-65
2024/01/27 12:41:51;;;;;;;3.47;1.35;;;10.80;77.60;;;;;;4974612;28;20042;-65
2024/01/27 12:44:17;;;;;;;8.55;1.98;;;11.00;77.30;;;;;;4975137;28;20367;-65
2024/01/27 12:46:43;;;;;;;7.85;1.60;;;11.70;75.40;;;;;;4975221;28;20382;-68
2024/01/27 12:49:09;;;;;;;2.42;1.20;;;11.70;74.60;;;;;;4975151;28;20030;-65